sensor_id;sensor_type;location;lat;lon;timestamp;temperature;humidity
5174;DHT22;2606;50.934;6.934;2022-12-16T00:00:12;-4.90;99.90
5174;DHT22;2606;50.934;6.934;2022-12-16T00:02:39;-4.80;99.90
5174;DHT22;2606;50.934;6.934;2022-12-16T00:05:05;-4.80;99.90
5174;DHT22;2606;50.934;6.934;2022-12-16T00:07:30;-4.80;99.90
5174;DHT22;2606;50.934;6.934;2022-12-16T00:09:56;-4.80;99.90
5174;DHT22;2606;50.934;6.934;2022-12-16T00:12:22;-4.80;99.90
5174;DHT22;2606;50.934;6.934;2022-12-16T00:14:47;-4.90;99.90
5174;DHT22;2606;50.934;6.934;2022-12-16T00:17:13;-4.80;99.90
5174;DHT22;2606;50.934;6.934;2022-12-16T00:19:38;-4.90;99.90
5174;DHT22;2606;50.934;6.934;2022-12-16T00:22:04;-4.90;99.90
5174;DHT22;2606;50.934;6.934;2022-12-16T00:24:29;-4.90;99.90
5174;DHT22;2606;50.934;6.934;2022-12-16T00:26:58;-4.90;99.90
5174;DHT22;2606;50.934;6.934;2022-12-16T00:29:23;-4.90;99.90
5174;DHT22;2606;50.934;6.934;2022-12-16T00:31:49;-4.90;99.90
5174;DHT22;2606;50.934;6.934;2022-12-16T00:34:15;-4.90;99.90
5174;DHT22;2606;50.934;6.934;2022-12-16T00:36:41;-4.90;99.90
5174;DHT22;2606;50.934;6.934;2022-12-16T00:39:08;-4.90;99.90
5174;DHT22;2606;50.934;6.934;2022-12-16T00:41:33;-4.90;99.90
5174;DHT22;2606;50.934;6.934;2022-12-16T00:43:59;-4.90;99.90
5174;DHT22;2606;50.934;6.934;2022-12-16T00:46:25;-5.00;99.90
5174;DHT22;2606;50.934;6.934;2022-12-16T00:48:50;-5.00;99.90
5174;DHT22;2606;50.934;6.934;2022-12-16T00:51:16;-5.00;99.90
5174;DHT22;2606;50.934;6.934;2022-12-16T00:53:41;-5.00;99.90
5174;DHT22;2606;50.934;6.934;2022-12-16T00:56:09;-5.00;99.90
5174;DHT22;2606;50.934;6.934;2022-12-16T00:58:36;-5.10;99.90
5174;DHT22;2606;50.934;6.934;2022-12-16T01:01:02;-5.10;99.90
5174;DHT22;2606;50.934;6.934;2022-12-16T01:03:28;-5.10;99.90
5174;DHT22;2606;50.934;6.934;2022-12-16T01:05:54;-5.10;99.90
5174;DHT22;2606;50.934;6.934;2022-12-16T01:08:19;-5.10;99.90
5174;DHT22;2606;50.934;6.934;2022-12-16T01:10:52;-5.20;99.90
5174;DHT22;2606;50.934;6.934;2022-12-16T01:13:19;-5.20;99.90
5174;DHT22;2606;50.934;6.934;2022-12-16T01:15:45;-5.20;99.90
5174;DHT22;2606;50.934;6.934;2022-12-16T01:18:11;-5.20;99.90
5174;DHT22;2606;50.934;6.934;2022-12-16T01:20:36;-5.30;99.90
5174;DHT22;2606;50.934;6.934;2022-12-16T01:23:03;-5.30;99.90
5174;DHT22;2606;50.934;6.934;2022-12-16T01:25:29;-5.30;99.90
5174;DHT22;2606;50.934;6.934;2022-12-16T01:27:54;-5.20;99.90
5174;DHT22;2606;50.934;6.934;2022-12-16T01:30:20;-5.30;99.90
5174;DHT22;2606;50.934;6.934;2022-12-16T01:32:46;-5.30;99.90
5174;DHT22;2606;50.934;6.934;2022-12-16T01:35:12;-5.30;99.90
5174;DHT22;2606;50.934;6.934;2022-12-16T01:37:38;-5.20;99.90
5174;DHT22;2606;50.934;6.934;2022-12-16T01:40:05;-5.20;99.90
5174;DHT22;2606;50.934;6.934;2022-12-16T01:42:31;-5.20;99.90
5174;DHT22;2606;50.934;6.934;2022-12-16T01:47:50;-5.30;99.90
5174;DHT22;2606;50.934;6.934;2022-12-16T01:50:17;-5.30;99.90
5174;DHT22;2606;50.934;6.934;2022-12-16T01:52:48;-5.30;99.90
5174;DHT22;2606;50.934;6.934;2022-12-16T01:55:31;-5.30;99.90
5174;DHT22;2606;50.934;6.934;2022-12-16T01:58:10;-5.30;99.90
5174;DHT22;2606;50.934;6.934;2022-12-16T02:00:38;-5.30;99.90
5174;DHT22;2606;50.934;6.934;2022-12-16T02:03:05;-5.30;99.90
5174;DHT22;2606;50.934;6.934;2022-12-16T02:05:33;-5.30;99.90
5174;DHT22;2606;50.934;6.934;2022-12-16T02:13:14;-5.30;99.90
5174;DHT22;2606;50.934;6.934;2022-12-16T02:16:19;-5.30;99.90
5174;DHT22;2606;50.934;6.934;2022-12-16T02:28:02;-5.30;99.90
5174;DHT22;2606;50.934;6.934;2022-12-16T02:36:00;-5.40;99.90
5174;DHT22;2606;50.934;6.934;2022-12-16T02:44:08;-5.40;99.90
5174;DHT22;2606;50.934;6.934;2022-12-16T02:46:42;-5.40;99.90
5174;DHT22;2606;50.934;6.934;2022-12-16T02:51:55;-5.40;99.90
5174;DHT22;2606;50.934;6.934;2022-12-16T02:54:22;-5.40;99.90
5174;DHT22;2606;50.934;6.934;2022-12-16T02:57:07;-5.40;99.90
5174;DHT22;2606;50.934;6.934;2022-12-16T02:59:59;-5.40;99.90
5174;DHT22;2606;50.934;6.934;2022-12-16T03:05:01;-5.40;99.90
5174;DHT22;2606;50.934;6.934;2022-12-16T03:07:32;-5.40;99.90
5174;DHT22;2606;50.934;6.934;2022-12-16T03:09:58;-5.40;99.90
5174;DHT22;2606;50.934;6.934;2022-12-16T03:12:25;-5.40;99.90
5174;DHT22;2606;50.934;6.934;2022-12-16T03:14:52;-5.50;99.90
5174;DHT22;2606;50.934;6.934;2022-12-16T03:17:20;-5.50;99.90
5174;DHT22;2606;50.934;6.934;2022-12-16T03:20:04;-5.50;99.90
5174;DHT22;2606;50.934;6.934;2022-12-16T03:22:33;-5.40;99.90
5174;DHT22;2606;50.934;6.934;2022-12-16T03:25:01;-5.50;99.90
5174;DHT22;2606;50.934;6.934;2022-12-16T03:27:45;-5.50;99.90
5174;DHT22;2606;50.934;6.934;2022-12-16T03:30:22;-5.40;99.90
5174;DHT22;2606;50.934;6.934;2022-12-16T03:33:02;-5.40;99.90
5174;DHT22;2606;50.934;6.934;2022-12-16T03:35:50;-5.50;99.90
5174;DHT22;2606;50.934;6.934;2022-12-16T03:38:17;-5.40;99.90
5174;DHT22;2606;50.934;6.934;2022-12-16T03:40:44;-5.50;99.90
5174;DHT22;2606;50.934;6.934;2022-12-16T03:43:11;-5.40;99.90
5174;DHT22;2606;50.934;6.934;2022-12-16T03:45:42;-5.50;99.90
5174;DHT22;2606;50.934;6.934;2022-12-16T03:48:11;-5.40;99.90
5174;DHT22;2606;50.934;6.934;2022-12-16T03:50:38;-5.40;99.90
5174;DHT22;2606;50.934;6.934;2022-12-16T03:53:05;-5.40;99.90
5174;DHT22;2606;50.934;6.934;2022-12-16T03:55:31;-5.40;99.90
5174;DHT22;2606;50.934;6.934;2022-12-16T03:57:56;-5.40;99.90
5174;DHT22;2606;50.934;6.934;2022-12-16T04:00:23;-5.40;99.90
5174;DHT22;2606;50.934;6.934;2022-12-16T04:02:49;-5.30;99.90
5174;DHT22;2606;50.934;6.934;2022-12-16T04:05:15;-5.40;99.90
5174;DHT22;2606;50.934;6.934;2022-12-16T04:07:40;-5.30;99.90
5174;DHT22;2606;50.934;6.934;2022-12-16T04:10:07;-5.30;99.90
5174;DHT22;2606;50.934;6.934;2022-12-16T04:12:33;-5.30;99.90
5174;DHT22;2606;50.934;6.934;2022-12-16T04:15:17;-5.40;99.90
5174;DHT22;2606;50.934;6.934;2022-12-16T04:18:02;-5.30;99.90
5174;DHT22;2606;50.934;6.934;2022-12-16T04:20:50;-5.30;99.90
5174;DHT22;2606;50.934;6.934;2022-12-16T04:23:35;-5.30;99.90
5174;DHT22;2606;50.934;6.934;2022-12-16T04:26:21;-5.30;99.90
5174;DHT22;2606;50.934;6.934;2022-12-16T04:28:46;-5.30;99.90
5174;DHT22;2606;50.934;6.934;2022-12-16T04:31:12;-5.30;99.90
5174;DHT22;2606;50.934;6.934;2022-12-16T04:33:39;-5.30;99.90
5174;DHT22;2606;50.934;6.934;2022-12-16T04:36:23;-5.30;99.90
5174;DHT22;2606;50.934;6.934;2022-12-16T04:39:07;-5.30;99.90
5174;DHT22;2606;50.934;6.934;2022-12-16T04:41:54;-5.30;99.90
5174;DHT22;2606;50.934;6.934;2022-12-16T04:44:38;-5.30;99.90
5174;DHT22;2606;50.934;6.934;2022-12-16T04:47:23;-5.20;99.90
5174;DHT22;2606;50.934;6.934;2022-12-16T04:50:07;-5.20;99.90
5174;DHT22;2606;50.934;6.934;2022-12-16T04:52:52;-5.20;99.90
5174;DHT22;2606;50.934;6.934;2022-12-16T04:55:36;-5.30;99.90
5174;DHT22;2606;50.934;6.934;2022-12-16T04:58:20;-5.20;99.90
5174;DHT22;2606;50.934;6.934;2022-12-16T05:01:04;-5.20;99.90
5174;DHT22;2606;50.934;6.934;2022-12-16T05:03:48;-5.20;99.90
5174;DHT22;2606;50.934;6.934;2022-12-16T05:06:32;-5.30;99.90
5174;DHT22;2606;50.934;6.934;2022-12-16T05:09:16;-5.30;99.90
5174;DHT22;2606;50.934;6.934;2022-12-16T05:12:00;-5.30;99.90
5174;DHT22;2606;50.934;6.934;2022-12-16T05:14:44;-5.30;99.90
5174;DHT22;2606;50.934;6.934;2022-12-16T05:17:28;-5.30;99.90
5174;DHT22;2606;50.934;6.934;2022-12-16T05:20:13;-5.30;99.90
5174;DHT22;2606;50.934;6.934;2022-12-16T05:22:57;-5.30;99.90
5174;DHT22;2606;50.934;6.934;2022-12-16T05:25:41;-5.20;99.90
5174;DHT22;2606;50.934;6.934;2022-12-16T05:28:28;-5.30;99.90
5174;DHT22;2606;50.934;6.934;2022-12-16T05:31:12;-5.30;99.90
5174;DHT22;2606;50.934;6.934;2022-12-16T05:33:56;-5.30;99.90
5174;DHT22;2606;50.934;6.934;2022-12-16T05:36:40;-5.30;99.90
5174;DHT22;2606;50.934;6.934;2022-12-16T05:39:25;-5.30;99.90
5174;DHT22;2606;50.934;6.934;2022-12-16T05:42:08;-5.30;99.90
5174;DHT22;2606;50.934;6.934;2022-12-16T05:44:53;-5.30;99.90
5174;DHT22;2606;50.934;6.934;2022-12-16T05:47:37;-5.40;99.90
5174;DHT22;2606;50.934;6.934;2022-12-16T05:50:22;-5.40;99.90
5174;DHT22;2606;50.934;6.934;2022-12-16T05:53:06;-5.30;99.90
5174;DHT22;2606;50.934;6.934;2022-12-16T05:55:50;-5.30;99.90
5174;DHT22;2606;50.934;6.934;2022-12-16T05:58:34;-5.40;99.90
5174;DHT22;2606;50.934;6.934;2022-12-16T06:01:18;-5.30;99.90
5174;DHT22;2606;50.934;6.934;2022-12-16T06:04:02;-5.40;99.90
5174;DHT22;2606;50.934;6.934;2022-12-16T06:06:46;-5.40;99.90
5174;DHT22;2606;50.934;6.934;2022-12-16T06:09:30;-5.40;99.90
5174;DHT22;2606;50.934;6.934;2022-12-16T06:12:14;-5.40;99.90
5174;DHT22;2606;50.934;6.934;2022-12-16T06:14:58;-5.40;99.90
5174;DHT22;2606;50.934;6.934;2022-12-16T06:17:46;-5.50;99.90
5174;DHT22;2606;50.934;6.934;2022-12-16T06:20:31;-5.50;99.90
5174;DHT22;2606;50.934;6.934;2022-12-16T06:23:15;-5.50;99.90
5174;DHT22;2606;50.934;6.934;2022-12-16T06:25:59;-5.50;99.90
5174;DHT22;2606;50.934;6.934;2022-12-16T06:28:43;-5.50;99.90
5174;DHT22;2606;50.934;6.934;2022-12-16T06:31:27;-5.50;99.90
5174;DHT22;2606;50.934;6.934;2022-12-16T06:34:11;-5.50;99.90
5174;DHT22;2606;50.934;6.934;2022-12-16T06:36:56;-5.50;99.90
5174;DHT22;2606;50.934;6.934;2022-12-16T06:39:50;-5.60;99.90
5174;DHT22;2606;50.934;6.934;2022-12-16T06:42:40;-5.60;99.90
5174;DHT22;2606;50.934;6.934;2022-12-16T06:45:25;-5.60;99.90
5174;DHT22;2606;50.934;6.934;2022-12-16T06:48:10;-5.60;99.90
5174;DHT22;2606;50.934;6.934;2022-12-16T06:50:54;-5.60;99.90
5174;DHT22;2606;50.934;6.934;2022-12-16T06:53:38;-5.60;99.90
5174;DHT22;2606;50.934;6.934;2022-12-16T06:56:22;-5.70;99.90
5174;DHT22;2606;50.934;6.934;2022-12-16T06:59:06;-5.70;99.90
5174;DHT22;2606;50.934;6.934;2022-12-16T07:01:50;-5.70;99.90
5174;DHT22;2606;50.934;6.934;2022-12-16T07:04:34;-5.70;99.90
5174;DHT22;2606;50.934;6.934;2022-12-16T07:07:18;-5.70;99.90
5174;DHT22;2606;50.934;6.934;2022-12-16T07:10:02;-5.70;99.90
5174;DHT22;2606;50.934;6.934;2022-12-16T07:12:46;-5.70;99.90
5174;DHT22;2606;50.934;6.934;2022-12-16T07:15:31;-5.70;99.90
5174;DHT22;2606;50.934;6.934;2022-12-16T07:18:16;-5.70;99.90
5174;DHT22;2606;50.934;6.934;2022-12-16T07:21:01;-5.70;99.90
5174;DHT22;2606;50.934;6.934;2022-12-16T07:24:03;-5.70;99.90
5174;DHT22;2606;50.934;6.934;2022-12-16T07:26:48;-5.70;99.90
5174;DHT22;2606;50.934;6.934;2022-12-16T07:29:32;-5.70;99.90
5174;DHT22;2606;50.934;6.934;2022-12-16T07:32:16;-5.70;99.90
5174;DHT22;2606;50.934;6.934;2022-12-16T07:35:00;-5.70;99.90
5174;DHT22;2606;50.934;6.934;2022-12-16T07:37:44;-5.70;99.90
5174;DHT22;2606;50.934;6.934;2022-12-16T07:40:28;-5.70;99.90
5174;DHT22;2606;50.934;6.934;2022-12-16T07:43:12;-5.70;99.90
5174;DHT22;2606;50.934;6.934;2022-12-16T07:45:56;-5.60;99.90
5174;DHT22;2606;50.934;6.934;2022-12-16T07:48:40;-5.70;99.90
5174;DHT22;2606;50.934;6.934;2022-12-16T07:51:24;-5.60;99.90
5174;DHT22;2606;50.934;6.934;2022-12-16T07:54:08;-5.60;99.90
5174;DHT22;2606;50.934;6.934;2022-12-16T07:56:52;-5.60;99.90
5174;DHT22;2606;50.934;6.934;2022-12-16T07:59:36;-5.60;99.90
5174;DHT22;2606;50.934;6.934;2022-12-16T08:02:20;-5.60;99.90
5174;DHT22;2606;50.934;6.934;2022-12-16T08:05:05;-5.60;99.90
5174;DHT22;2606;50.934;6.934;2022-12-16T08:07:49;-5.60;99.90
5174;DHT22;2606;50.934;6.934;2022-12-16T08:10:33;-5.60;99.90
5174;DHT22;2606;50.934;6.934;2022-12-16T08:13:17;-5.60;99.90
5174;DHT22;2606;50.934;6.934;2022-12-16T08:16:01;-5.60;99.90
5174;DHT22;2606;50.934;6.934;2022-12-16T08:18:45;-5.60;99.90
5174;DHT22;2606;50.934;6.934;2022-12-16T08:21:29;-5.60;99.90
5174;DHT22;2606;50.934;6.934;2022-12-16T08:24:13;-5.60;99.90
5174;DHT22;2606;50.934;6.934;2022-12-16T08:26:57;-5.50;99.90
5174;DHT22;2606;50.934;6.934;2022-12-16T08:29:41;-5.30;99.90
5174;DHT22;2606;50.934;6.934;2022-12-16T08:32:25;-5.10;99.90
5174;DHT22;2606;50.934;6.934;2022-12-16T08:35:09;-4.90;99.90
5174;DHT22;2606;50.934;6.934;2022-12-16T08:37:54;-4.80;99.90
5174;DHT22;2606;50.934;6.934;2022-12-16T08:40:41;-4.70;99.90
5174;DHT22;2606;50.934;6.934;2022-12-16T08:43:26;-4.70;99.90
5174;DHT22;2606;50.934;6.934;2022-12-16T08:46:10;-4.70;99.90
5174;DHT22;2606;50.934;6.934;2022-12-16T08:48:54;-4.70;99.90
5174;DHT22;2606;50.934;6.934;2022-12-16T08:51:38;-4.80;99.90
5174;DHT22;2606;50.934;6.934;2022-12-16T08:54:22;-4.80;99.90
5174;DHT22;2606;50.934;6.934;2022-12-16T08:57:06;-4.80;99.90
5174;DHT22;2606;50.934;6.934;2022-12-16T08:59:50;-4.80;99.90
5174;DHT22;2606;50.934;6.934;2022-12-16T09:02:34;-4.80;99.90
5174;DHT22;2606;50.934;6.934;2022-12-16T09:05:18;-4.80;99.90
5174;DHT22;2606;50.934;6.934;2022-12-16T09:08:03;-4.80;99.90
5174;DHT22;2606;50.934;6.934;2022-12-16T09:10:47;-4.80;99.90
5174;DHT22;2606;50.934;6.934;2022-12-16T09:13:31;-4.90;99.90
5174;DHT22;2606;50.934;6.934;2022-12-16T09:16:15;-4.80;99.90
5174;DHT22;2606;50.934;6.934;2022-12-16T09:18:59;-4.80;99.90
5174;DHT22;2606;50.934;6.934;2022-12-16T09:21:43;-4.80;99.90
5174;DHT22;2606;50.934;6.934;2022-12-16T09:24:27;-4.80;99.90
5174;DHT22;2606;50.934;6.934;2022-12-16T09:27:12;-4.80;99.90
5174;DHT22;2606;50.934;6.934;2022-12-16T09:29:56;-4.80;99.90
5174;DHT22;2606;50.934;6.934;2022-12-16T09:32:41;-4.80;99.90
5174;DHT22;2606;50.934;6.934;2022-12-16T09:35:25;-4.80;99.90
5174;DHT22;2606;50.934;6.934;2022-12-16T09:38:09;-4.80;99.90
5174;DHT22;2606;50.934;6.934;2022-12-16T09:40:53;-4.80;99.90
5174;DHT22;2606;50.934;6.934;2022-12-16T09:43:50;-4.80;99.90
5174;DHT22;2606;50.934;6.934;2022-12-16T09:46:57;-4.80;99.90
5174;DHT22;2606;50.934;6.934;2022-12-16T09:49:50;-4.70;99.90
5174;DHT22;2606;50.934;6.934;2022-12-16T09:53:12;-4.60;99.90
5174;DHT22;2606;50.934;6.934;2022-12-16T09:55:49;-4.60;99.90
5174;DHT22;2606;50.934;6.934;2022-12-16T09:58:41;-4.50;99.90
5174;DHT22;2606;50.934;6.934;2022-12-16T10:01:29;-4.50;99.90
5174;DHT22;2606;50.934;6.934;2022-12-16T10:04:16;-4.40;99.90
5174;DHT22;2606;50.934;6.934;2022-12-16T10:07:01;-4.40;99.90
5174;DHT22;2606;50.934;6.934;2022-12-16T10:10:25;-4.40;99.90
5174;DHT22;2606;50.934;6.934;2022-12-16T10:13:28;-4.30;99.90
5174;DHT22;2606;50.934;6.934;2022-12-16T10:22:43;-4.10;99.90
5174;DHT22;2606;50.934;6.934;2022-12-16T10:25:38;-4.10;99.90
5174;DHT22;2606;50.934;6.934;2022-12-16T10:28:43;-4.10;99.90
5174;DHT22;2606;50.934;6.934;2022-12-16T10:31:28;-4.00;99.90
5174;DHT22;2606;50.934;6.934;2022-12-16T10:34:15;-3.90;99.90
5174;DHT22;2606;50.934;6.934;2022-12-16T10:37:00;-4.00;99.90
5174;DHT22;2606;50.934;6.934;2022-12-16T10:39:50;-4.00;99.90
5174;DHT22;2606;50.934;6.934;2022-12-16T10:42:40;-3.90;99.90
5174;DHT22;2606;50.934;6.934;2022-12-16T10:45:30;-3.80;99.90
5174;DHT22;2606;50.934;6.934;2022-12-16T10:48:18;-3.80;99.90
5174;DHT22;2606;50.934;6.934;2022-12-16T10:51:12;-3.70;99.90
5174;DHT22;2606;50.934;6.934;2022-12-16T10:54:10;-3.70;99.90
5174;DHT22;2606;50.934;6.934;2022-12-16T10:57:23;-3.60;99.90
5174;DHT22;2606;50.934;6.934;2022-12-16T11:00:18;-3.60;99.90
5174;DHT22;2606;50.934;6.934;2022-12-16T11:03:28;-3.60;99.90
5174;DHT22;2606;50.934;6.934;2022-12-16T11:06:38;-3.50;99.90
5174;DHT22;2606;50.934;6.934;2022-12-16T11:09:33;-3.50;99.90
5174;DHT22;2606;50.934;6.934;2022-12-16T11:12:28;-3.40;99.90
5174;DHT22;2606;50.934;6.934;2022-12-16T11:15:26;-3.30;99.90
5174;DHT22;2606;50.934;6.934;2022-12-16T11:18:13;-3.30;99.90
5174;DHT22;2606;50.934;6.934;2022-12-16T11:21:18;-3.30;99.90
5174;DHT22;2606;50.934;6.934;2022-12-16T11:27:05;-3.20;99.90
5174;DHT22;2606;50.934;6.934;2022-12-16T11:29:57;-3.20;99.90
5174;DHT22;2606;50.934;6.934;2022-12-16T11:32:49;-3.10;99.90
5174;DHT22;2606;50.934;6.934;2022-12-16T11:35:39;-3.10;99.90
5174;DHT22;2606;50.934;6.934;2022-12-16T11:38:42;-3.00;99.90
5174;DHT22;2606;50.934;6.934;2022-12-16T11:41:30;-2.90;99.90
5174;DHT22;2606;50.934;6.934;2022-12-16T11:44:39;-2.90;99.90
5174;DHT22;2606;50.934;6.934;2022-12-16T11:47:48;-2.80;99.90
5174;DHT22;2606;50.934;6.934;2022-12-16T11:50:40;-2.70;99.90
5174;DHT22;2606;50.934;6.934;2022-12-16T11:53:33;-2.60;99.90
5174;DHT22;2606;50.934;6.934;2022-12-16T11:56:25;-2.60;99.90
5174;DHT22;2606;50.934;6.934;2022-12-16T11:59:31;-2.50;99.90
5174;DHT22;2606;50.934;6.934;2022-12-16T12:02:34;-2.40;99.90
5174;DHT22;2606;50.934;6.934;2022-12-16T12:05:44;-2.30;99.90
5174;DHT22;2606;50.934;6.934;2022-12-16T12:08:50;-2.30;99.90
5174;DHT22;2606;50.934;6.934;2022-12-16T12:11:41;-2.20;99.90
5174;DHT22;2606;50.934;6.934;2022-12-16T12:14:49;-2.20;99.90
5174;DHT22;2606;50.934;6.934;2022-12-16T12:30:21;-2.10;99.90
5174;DHT22;2606;50.934;6.934;2022-12-16T12:33:35;-2.00;99.90
5174;DHT22;2606;50.934;6.934;2022-12-16T12:36:32;-2.00;99.90
5174;DHT22;2606;50.934;6.934;2022-12-16T12:55:21;-1.90;99.90
5174;DHT22;2606;50.934;6.934;2022-12-16T12:58:07;-1.80;99.90
5174;DHT22;2606;50.934;6.934;2022-12-16T13:00:54;-1.80;99.90
5174;DHT22;2606;50.934;6.934;2022-12-16T13:04:05;-1.80;99.90
5174;DHT22;2606;50.934;6.934;2022-12-16T13:06:50;-1.80;99.90
5174;DHT22;2606;50.934;6.934;2022-12-16T13:09:37;-1.70;99.90
5174;DHT22;2606;50.934;6.934;2022-12-16T13:12:30;-1.70;99.90
5174;DHT22;2606;50.934;6.934;2022-12-16T13:15:36;-1.70;99.90
5174;DHT22;2606;50.934;6.934;2022-12-16T13:18:25;-1.80;99.90
5174;DHT22;2606;50.934;6.934;2022-12-16T13:24:36;-1.80;99.90
5174;DHT22;2606;50.934;6.934;2022-12-16T13:27:22;-1.80;99.90
5174;DHT22;2606;50.934;6.934;2022-12-16T13:33:23;-1.70;99.90
5174;DHT22;2606;50.934;6.934;2022-12-16T13:36:09;-1.70;99.90
5174;DHT22;2606;50.934;6.934;2022-12-16T13:38:57;-1.80;99.90
5174;DHT22;2606;50.934;6.934;2022-12-16T13:41:58;-1.80;99.90
5174;DHT22;2606;50.934;6.934;2022-12-16T13:50:43;-1.80;99.90
5174;DHT22;2606;50.934;6.934;2022-12-16T13:53:40;-1.80;99.90
5174;DHT22;2606;50.934;6.934;2022-12-16T13:56:39;-1.80;99.90
5174;DHT22;2606;50.934;6.934;2022-12-16T13:59:27;-1.80;99.90
5174;DHT22;2606;50.934;6.934;2022-12-16T14:02:19;-1.70;99.90
5174;DHT22;2606;50.934;6.934;2022-12-16T14:05:16;-1.70;99.90
5174;DHT22;2606;50.934;6.934;2022-12-16T14:08:01;-1.70;99.90
5174;DHT22;2606;50.934;6.934;2022-12-16T14:10:55;-1.70;99.90
5174;DHT22;2606;50.934;6.934;2022-12-16T14:14:18;-1.60;99.90
5174;DHT22;2606;50.934;6.934;2022-12-16T14:17:11;-1.70;99.90
5174;DHT22;2606;50.934;6.934;2022-12-16T14:26:11;-1.60;99.90
5174;DHT22;2606;50.934;6.934;2022-12-16T14:28:56;-1.60;99.90
5174;DHT22;2606;50.934;6.934;2022-12-16T14:31:42;-1.60;99.90
5174;DHT22;2606;50.934;6.934;2022-12-16T14:34:30;-1.70;99.90
5174;DHT22;2606;50.934;6.934;2022-12-16T14:40:17;-1.60;99.90
5174;DHT22;2606;50.934;6.934;2022-12-16T14:43:01;-1.60;99.90
5174;DHT22;2606;50.934;6.934;2022-12-16T14:45:49;-1.60;99.90
5174;DHT22;2606;50.934;6.934;2022-12-16T14:48:36;-1.60;99.90
5174;DHT22;2606;50.934;6.934;2022-12-16T14:51:30;-1.60;99.90
5174;DHT22;2606;50.934;6.934;2022-12-16T14:57:02;-1.60;99.90
5174;DHT22;2606;50.934;6.934;2022-12-16T14:59:46;-1.50;99.90
5174;DHT22;2606;50.934;6.934;2022-12-16T15:02:35;-1.50;99.90
5174;DHT22;2606;50.934;6.934;2022-12-16T15:05:27;-1.50;99.90
5174;DHT22;2606;50.934;6.934;2022-12-16T15:08:14;-1.40;99.90
5174;DHT22;2606;50.934;6.934;2022-12-16T15:10:59;-1.50;99.90
5174;DHT22;2606;50.934;6.934;2022-12-16T15:13:44;-1.50;99.90
5174;DHT22;2606;50.934;6.934;2022-12-16T15:16:32;-1.50;99.90
5174;DHT22;2606;50.934;6.934;2022-12-16T15:19:20;-1.50;99.90
5174;DHT22;2606;50.934;6.934;2022-12-16T15:22:08;-1.50;99.90
5174;DHT22;2606;50.934;6.934;2022-12-16T15:24:54;-1.50;99.90
5174;DHT22;2606;50.934;6.934;2022-12-16T15:27:38;-1.50;99.90
5174;DHT22;2606;50.934;6.934;2022-12-16T15:30:44;-1.40;99.90
5174;DHT22;2606;50.934;6.934;2022-12-16T15:33:34;-1.40;99.90
5174;DHT22;2606;50.934;6.934;2022-12-16T15:36:33;-1.40;99.90
5174;DHT22;2606;50.934;6.934;2022-12-16T15:39:34;-1.40;99.90
5174;DHT22;2606;50.934;6.934;2022-12-16T15:42:30;-1.40;99.90
5174;DHT22;2606;50.934;6.934;2022-12-16T15:48:33;-1.40;99.90
5174;DHT22;2606;50.934;6.934;2022-12-16T15:51:31;-1.50;99.90
5174;DHT22;2606;50.934;6.934;2022-12-16T15:54:23;-1.40;99.90
5174;DHT22;2606;50.934;6.934;2022-12-16T16:00:28;-1.40;99.90
5174;DHT22;2606;50.934;6.934;2022-12-16T16:03:25;-1.40;99.90
5174;DHT22;2606;50.934;6.934;2022-12-16T16:06:28;-1.40;99.90
5174;DHT22;2606;50.934;6.934;2022-12-16T16:09:22;-1.40;99.90
5174;DHT22;2606;50.934;6.934;2022-12-16T16:12:09;-1.40;99.90
5174;DHT22;2606;50.934;6.934;2022-12-16T16:14:54;-1.40;99.90
5174;DHT22;2606;50.934;6.934;2022-12-16T16:17:38;-1.40;99.90
5174;DHT22;2606;50.934;6.934;2022-12-16T16:20:22;-1.40;99.90
5174;DHT22;2606;50.934;6.934;2022-12-16T16:23:08;-1.30;99.90
5174;DHT22;2606;50.934;6.934;2022-12-16T16:25:53;-1.30;99.90
5174;DHT22;2606;50.934;6.934;2022-12-16T16:28:37;-1.30;99.90
5174;DHT22;2606;50.934;6.934;2022-12-16T16:31:21;-1.30;99.90
5174;DHT22;2606;50.934;6.934;2022-12-16T16:34:06;-1.30;99.90
5174;DHT22;2606;50.934;6.934;2022-12-16T16:36:55;-1.30;99.90
5174;DHT22;2606;50.934;6.934;2022-12-16T16:39:40;-1.30;99.90
5174;DHT22;2606;50.934;6.934;2022-12-16T16:42:24;-1.20;99.90
5174;DHT22;2606;50.934;6.934;2022-12-16T16:45:09;-1.30;99.90
5174;DHT22;2606;50.934;6.934;2022-12-16T16:48:04;-1.30;99.90
5174;DHT22;2606;50.934;6.934;2022-12-16T16:50:48;-1.20;99.90
5174;DHT22;2606;50.934;6.934;2022-12-16T16:53:32;-1.20;99.90
5174;DHT22;2606;50.934;6.934;2022-12-16T16:56:20;-1.20;99.90
5174;DHT22;2606;50.934;6.934;2022-12-16T16:59:04;-1.20;99.90
5174;DHT22;2606;50.934;6.934;2022-12-16T17:01:48;-1.20;99.90
5174;DHT22;2606;50.934;6.934;2022-12-16T17:04:32;-1.10;99.90
5174;DHT22;2606;50.934;6.934;2022-12-16T17:07:15;-1.10;99.90
5174;DHT22;2606;50.934;6.934;2022-12-16T17:10:00;-1.10;99.90
5174;DHT22;2606;50.934;6.934;2022-12-16T17:12:44;-1.10;99.90
5174;DHT22;2606;50.934;6.934;2022-12-16T17:15:31;-1.10;99.90
5174;DHT22;2606;50.934;6.934;2022-12-16T17:18:15;-1.10;99.90
5174;DHT22;2606;50.934;6.934;2022-12-16T17:20:59;-1.10;99.90
5174;DHT22;2606;50.934;6.934;2022-12-16T17:23:43;-1.00;99.90
5174;DHT22;2606;50.934;6.934;2022-12-16T17:26:27;-1.00;99.90
5174;DHT22;2606;50.934;6.934;2022-12-16T17:29:20;-1.00;99.90
5174;DHT22;2606;50.934;6.934;2022-12-16T17:32:04;-1.00;99.90
5174;DHT22;2606;50.934;6.934;2022-12-16T17:34:48;-1.00;99.90
5174;DHT22;2606;50.934;6.934;2022-12-16T17:37:32;-1.00;99.90
5174;DHT22;2606;50.934;6.934;2022-12-16T17:40:18;-1.00;99.90
5174;DHT22;2606;50.934;6.934;2022-12-16T17:43:03;-1.00;99.90
5174;DHT22;2606;50.934;6.934;2022-12-16T17:45:58;-1.00;99.90
5174;DHT22;2606;50.934;6.934;2022-12-16T17:48:42;-0.90;99.90
5174;DHT22;2606;50.934;6.934;2022-12-16T17:51:27;-0.90;99.90
5174;DHT22;2606;50.934;6.934;2022-12-16T17:54:10;-0.90;99.90
5174;DHT22;2606;50.934;6.934;2022-12-16T17:56:55;-0.80;99.90
5174;DHT22;2606;50.934;6.934;2022-12-16T17:59:39;-0.80;99.90
5174;DHT22;2606;50.934;6.934;2022-12-16T18:02:25;-0.80;99.90
5174;DHT22;2606;50.934;6.934;2022-12-16T18:05:09;-0.70;99.90
5174;DHT22;2606;50.934;6.934;2022-12-16T18:07:53;-0.70;99.90
5174;DHT22;2606;50.934;6.934;2022-12-16T18:10:38;-0.70;99.90
5174;DHT22;2606;50.934;6.934;2022-12-16T18:13:22;-0.70;99.90
5174;DHT22;2606;50.934;6.934;2022-12-16T18:16:06;-0.70;99.90
5174;DHT22;2606;50.934;6.934;2022-12-16T18:18:50;-0.70;99.90
5174;DHT22;2606;50.934;6.934;2022-12-16T18:21:35;-0.60;99.90
5174;DHT22;2606;50.934;6.934;2022-12-16T18:24:19;-0.70;99.90
5174;DHT22;2606;50.934;6.934;2022-12-16T18:27:03;-0.60;99.90
5174;DHT22;2606;50.934;6.934;2022-12-16T18:29:47;-0.60;99.90
5174;DHT22;2606;50.934;6.934;2022-12-16T18:32:31;-0.60;99.90
5174;DHT22;2606;50.934;6.934;2022-12-16T18:35:15;-0.60;99.90
5174;DHT22;2606;50.934;6.934;2022-12-16T18:38:00;-0.60;99.90
5174;DHT22;2606;50.934;6.934;2022-12-16T18:40:44;-0.60;99.90
5174;DHT22;2606;50.934;6.934;2022-12-16T18:43:29;-0.70;99.90
5174;DHT22;2606;50.934;6.934;2022-12-16T18:46:13;-0.60;99.90
5174;DHT22;2606;50.934;6.934;2022-12-16T18:48:57;-0.60;99.90
5174;DHT22;2606;50.934;6.934;2022-12-16T18:51:41;-0.50;99.90
5174;DHT22;2606;50.934;6.934;2022-12-16T18:54:25;-0.50;99.90
5174;DHT22;2606;50.934;6.934;2022-12-16T18:57:09;-0.60;99.90
5174;DHT22;2606;50.934;6.934;2022-12-16T18:59:53;-0.60;99.90
5174;DHT22;2606;50.934;6.934;2022-12-16T19:02:37;-0.50;99.90
5174;DHT22;2606;50.934;6.934;2022-12-16T19:05:21;-0.50;99.90
5174;DHT22;2606;50.934;6.934;2022-12-16T19:08:09;-0.50;99.90
5174;DHT22;2606;50.934;6.934;2022-12-16T19:10:59;-0.50;99.90
5174;DHT22;2606;50.934;6.934;2022-12-16T19:13:43;-0.50;99.90
5174;DHT22;2606;50.934;6.934;2022-12-16T19:16:27;-0.50;99.90
5174;DHT22;2606;50.934;6.934;2022-12-16T19:19:11;-0.50;99.90
5174;DHT22;2606;50.934;6.934;2022-12-16T19:21:55;-0.60;99.90
5174;DHT22;2606;50.934;6.934;2022-12-16T19:24:39;-0.60;99.90
5174;DHT22;2606;50.934;6.934;2022-12-16T19:27:23;-0.60;99.90
5174;DHT22;2606;50.934;6.934;2022-12-16T19:30:08;-0.60;99.90